createdAt,value
2022-11-16T00:00:05.388Z,59.0
2022-11-16T00:01:04.541Z,59.0
2022-11-16T00:02:00.318Z,59.0
2022-11-16T00:03:02.453Z,59.0
2022-11-16T00:04:01.655Z,57.9
2022-11-16T00:05:00.289Z,57.9
2022-11-16T00:06:03.548Z,57.9
2022-11-16T00:07:00.583Z,57.9
2022-11-16T00:08:00.286Z,57.9
2022-11-16T00:09:01.480Z,57.7
2022-11-16T00:10:00.312Z,57.7
2022-11-16T00:11:05.694Z,57.7
2022-11-16T00:12:03.953Z,57.7
2022-11-16T00:13:00.260Z,57.7
2022-11-16T00:14:00.328Z,52.0
2022-11-16T00:15:00.292Z,52.0
2022-11-16T00:16:00.990Z,52.0
2022-11-16T00:17:00.912Z,52.0
2022-11-16T00:18:00.290Z,52.0
2022-11-16T00:19:02.613Z,53.0
2022-11-16T00:20:00.466Z,53.0
2022-11-16T00:21:03.284Z,53.0
2022-11-16T00:22:00.348Z,53.0
2022-11-16T00:23:00.270Z,53.0
2022-11-16T00:24:00.873Z,53.5
2022-11-16T00:25:00.285Z,53.5
2022-11-16T00:26:05.102Z,53.5
2022-11-16T00:27:00.326Z,53.5
2022-11-16T00:28:00.283Z,53.5
2022-11-16T00:29:00.292Z,53.4
2022-11-16T00:30:00.303Z,53.4
2022-11-16T00:31:02.187Z,53.4
2022-11-16T00:32:01.078Z,53.4
2022-11-16T00:33:00.674Z,53.4
2022-11-16T00:34:00.286Z,51.1
2022-11-16T00:35:00.451Z,51.1
2022-11-16T00:36:01.395Z,51.1
2022-11-16T00:37:00.290Z,51.1
2022-11-16T00:38:00.269Z,51.1
2022-11-16T00:39:00.282Z,52.7
2022-11-16T00:40:00.274Z,52.7
2022-11-16T00:41:00.435Z,52.7
2022-11-16T00:42:00.341Z,52.7
2022-11-16T00:43:00.263Z,52.7
2022-11-16T00:44:00.299Z,53.4
2022-11-16T00:45:00.270Z,53.4
2022-11-16T00:46:00.351Z,53.4
2022-11-16T00:47:00.309Z,53.4
2022-11-16T00:48:00.860Z,53.4
2022-11-16T00:49:00.420Z,52.4
2022-11-16T00:50:00.296Z,52.4
2022-11-16T00:51:00.364Z,52.4
2022-11-16T00:52:00.422Z,52.4
2022-11-16T00:53:00.260Z,52.4
2022-11-16T00:54:01.635Z,54.2
2022-11-16T00:55:00.397Z,54.2
2022-11-16T00:56:00.288Z,54.2
2022-11-16T00:57:00.268Z,54.2
2022-11-16T00:58:00.290Z,54.2
2022-11-16T00:59:00.334Z,53.9
2022-11-16T01:00:00.279Z,53.9
2022-11-16T01:01:05.041Z,53.9
2022-11-16T01:02:00.326Z,53.9
2022-11-16T01:03:00.354Z,53.9
2022-11-16T01:04:00.341Z,55.3
2022-11-16T01:05:00.348Z,55.3
2022-11-16T01:06:02.159Z,55.3
2022-11-16T01:07:00.331Z,55.3
2022-11-16T01:08:00.380Z,55.3
2022-11-16T01:09:00.465Z,55.7
2022-11-16T01:10:00.702Z,55.7
2022-11-16T01:11:00.488Z,55.7
2022-11-16T01:12:00.315Z,55.7
2022-11-16T01:13:00.388Z,55.7
2022-11-16T01:14:02.670Z,53.7
2022-11-16T01:15:00.490Z,53.7
2022-11-16T01:16:00.271Z,53.7
2022-11-16T01:17:00.299Z,53.7
2022-11-16T01:18:00.305Z,53.7
2022-11-16T01:19:00.456Z,52.4
2022-11-16T01:20:00.621Z,52.4
2022-11-16T01:21:00.277Z,52.4
2022-11-16T01:22:00.376Z,52.4
2022-11-16T01:23:00.265Z,52.4
2022-11-16T01:24:00.693Z,52.7
2022-11-16T01:25:00.286Z,52.7
2022-11-16T01:26:00.287Z,52.7
2022-11-16T01:27:00.302Z,52.7
2022-11-16T01:28:00.277Z,52.7
2022-11-16T01:29:00.269Z,52.7
2022-11-16T01:30:00.284Z,52.7
2022-11-16T01:31:00.432Z,52.7
2022-11-16T01:32:00.446Z,52.7
2022-11-16T01:33:00.280Z,52.7
2022-11-16T01:34:00.299Z,49.6
2022-11-16T01:35:00.575Z,49.6
2022-11-16T01:36:00.297Z,49.6
2022-11-16T01:37:00.506Z,49.6
2022-11-16T01:38:00.298Z,49.6
2022-11-16T01:39:00.271Z,48.9
2022-11-16T01:40:00.288Z,48.9
2022-11-16T01:41:00.269Z,48.9
2022-11-16T01:42:00.336Z,48.9
2022-11-16T01:43:00.296Z,48.9
2022-11-16T01:44:03.409Z,48.3
2022-11-16T01:45:04.462Z,48.3
2022-11-16T01:46:00.282Z,48.3
2022-11-16T01:47:04.851Z,48.3
2022-11-16T01:48:00.541Z,48.3
2022-11-16T01:49:05.466Z,49.0
2022-11-16T01:50:04.874Z,49.0
2022-11-16T01:51:00.418Z,49.0
2022-11-16T01:52:06.061Z,49.0
2022-11-16T01:53:04.829Z,49.0
2022-11-16T01:54:03.459Z,47.5
2022-11-16T01:55:01.343Z,47.5
2022-11-16T01:56:00.403Z,47.5
2022-11-16T01:57:03.522Z,47.5
2022-11-16T01:58:01.412Z,47.5
2022-11-16T01:59:00.715Z,48.2
2022-11-16T02:00:02.523Z,48.2
2022-11-16T02:01:00.389Z,48.2
2022-11-16T02:02:01.306Z,48.2
2022-11-16T02:03:00.300Z,48.2
2022-11-16T02:04:00.286Z,44.7
2022-11-16T02:05:01.940Z,44.7
2022-11-16T02:07:13.514Z,44.7
2022-11-16T02:08:17.528Z,44.7
2022-11-16T02:09:10.166Z,46.2
2022-11-16T02:10:01.222Z,46.2
2022-11-16T02:11:20.152Z,46.2
2022-11-16T02:12:15.816Z,46.2
2022-11-16T02:13:12.396Z,46.2
2022-11-16T02:14:11.535Z,46.7
2022-11-16T02:15:06.879Z,46.7
2022-11-16T02:16:18.362Z,46.7
2022-11-16T02:17:10.188Z,46.7
2022-11-16T02:18:15.160Z,46.7
2022-11-16T02:19:20.133Z,47.7
2022-11-16T02:20:13.454Z,47.7
2022-11-16T02:21:02.250Z,47.7
2022-11-16T02:22:17.466Z,47.7
2022-11-16T02:23:20.139Z,47.7
2022-11-16T02:24:01.230Z,46.2
2022-11-16T02:25:06.996Z,46.2
2022-11-16T02:26:20.132Z,46.2
2022-11-16T02:27:18.965Z,46.2
2022-11-16T02:28:15.470Z,46.2
2022-11-16T02:29:15.214Z,45.6
2022-11-16T02:30:01.366Z,45.6
2022-11-16T02:31:04.214Z,45.6
2022-11-16T02:32:07.829Z,45.6
2022-11-16T02:33:08.969Z,45.6
2022-11-16T02:34:01.437Z,46.8
2022-11-16T02:35:06.838Z,46.8
2022-11-16T02:36:03.669Z,46.8
2022-11-16T02:37:04.987Z,46.8
2022-11-16T02:38:06.989Z,46.8
2022-11-16T02:39:05.563Z,47.1
2022-11-16T02:40:04.378Z,47.1
2022-11-16T02:41:04.577Z,47.1
2022-11-16T02:42:01.592Z,47.1
2022-11-16T02:43:06.580Z,47.1
2022-11-16T02:44:10.181Z,47.3
2022-11-16T02:45:02.842Z,47.3
2022-11-16T02:46:06.326Z,47.3
2022-11-16T02:47:06.311Z,47.3
2022-11-16T02:48:07.131Z,47.3
2022-11-16T02:49:04.120Z,46.5
2022-11-16T02:50:13.604Z,46.5
2022-11-16T02:51:01.954Z,46.5
2022-11-16T02:52:03.133Z,46.5
2022-11-16T02:53:00.218Z,46.5
2022-11-16T02:54:06.892Z,47.9
2022-11-16T02:55:00.325Z,47.9
2022-11-16T02:56:00.249Z,47.9
2022-11-16T02:57:01.234Z,47.9
2022-11-16T02:58:02.645Z,47.9
2022-11-16T02:59:00.244Z,46.0
2022-11-16T03:00:01.426Z,46.0
2022-11-16T03:01:06.635Z,46.0
2022-11-16T03:02:11.196Z,46.0
2022-11-16T03:03:16.271Z,46.0
2022-11-16T03:04:07.250Z,45.2
2022-11-16T03:05:15.036Z,45.2
2022-11-16T03:06:06.198Z,45.2
2022-11-16T03:07:04.405Z,45.2
2022-11-16T03:08:07.930Z,45.2
2022-11-16T03:09:04.810Z,46.7
2022-11-16T03:10:01.064Z,46.7
2022-11-16T03:11:04.116Z,46.7
2022-11-16T03:12:03.952Z,46.7
2022-11-16T03:13:01.308Z,46.7
2022-11-16T03:14:07.105Z,45.4
2022-11-16T03:15:03.373Z,45.4
2022-11-16T03:16:06.354Z,45.4
2022-11-16T03:17:02.603Z,45.4
2022-11-16T03:18:00.220Z,45.4
2022-11-16T03:19:04.542Z,47.9
2022-11-16T03:20:06.437Z,47.9
2022-11-16T03:21:09.969Z,47.9
2022-11-16T03:22:08.286Z,47.9
2022-11-16T03:23:03.954Z,47.9
2022-11-16T03:24:00.500Z,43.4
2022-11-16T03:25:00.448Z,43.4
2022-11-16T03:26:05.535Z,43.4
2022-11-16T03:27:16.702Z,43.4
2022-11-16T03:28:10.163Z,43.4
2022-11-16T03:29:09.472Z,44.4
2022-11-16T03:30:04.828Z,44.4
2022-11-16T03:31:08.608Z,44.4
2022-11-16T03:32:12.356Z,44.4
2022-11-16T03:33:20.135Z,43.8
2022-11-16T03:34:06.663Z,43.8
2022-11-16T03:35:06.565Z,43.8
2022-11-16T03:36:16.850Z,43.8
2022-11-16T03:37:02.972Z,43.8
2022-11-16T03:38:02.759Z,43.8
2022-11-16T03:39:07.154Z,44.9
2022-11-16T03:40:03.259Z,44.9
2022-11-16T03:41:03.024Z,44.9
2022-11-16T03:42:05.154Z,44.9
2022-11-16T03:43:01.801Z,44.9
2022-11-16T03:44:01.167Z,39.1
2022-11-16T03:45:01.933Z,39.1
2022-11-16T03:46:00.545Z,39.1
2022-11-16T03:47:00.843Z,39.1
2022-11-16T03:48:00.286Z,39.1
2022-11-16T03:49:00.740Z,45.0
2022-11-16T03:50:00.252Z,45.0
2022-11-16T03:51:00.884Z,45.0
2022-11-16T03:52:00.334Z,45.0
2022-11-16T03:53:00.248Z,45.0
2022-11-16T03:54:00.239Z,38.5
2022-11-16T03:55:00.319Z,38.5
2022-11-16T03:56:00.298Z,38.5
2022-11-16T03:57:00.213Z,38.5
2022-11-16T03:58:00.255Z,38.5
2022-11-16T03:59:00.261Z,41.9
2022-11-16T04:00:00.290Z,41.9
2022-11-16T04:01:00.682Z,41.9
2022-11-16T04:02:00.255Z,41.9
2022-11-16T04:03:00.232Z,41.9
2022-11-16T04:04:00.273Z,42.5
2022-11-16T04:05:00.379Z,42.5
2022-11-16T04:06:00.229Z,42.5
2022-11-16T04:07:00.345Z,42.5
2022-11-16T04:08:00.501Z,42.5
2022-11-16T04:09:00.232Z,39.4
2022-11-16T04:10:00.236Z,39.4
2022-11-16T04:11:00.278Z,39.4
2022-11-16T04:12:00.431Z,39.4
2022-11-16T04:13:01.616Z,39.4
2022-11-16T04:14:03.052Z,35.6
2022-11-16T04:15:00.280Z,35.6
2022-11-16T04:16:00.229Z,35.6
2022-11-16T04:17:00.292Z,35.6
2022-11-16T04:18:00.237Z,35.6
2022-11-16T04:19:00.436Z,32.8
2022-11-16T04:20:00.644Z,32.8
2022-11-16T04:21:00.335Z,32.8
2022-11-16T04:22:08.920Z,32.8
2022-11-16T04:23:12.060Z,32.4
2022-11-16T04:24:00.398Z,32.4
2022-11-16T04:25:09.231Z,32.4
2022-11-16T04:26:00.281Z,32.4
2022-11-16T04:27:04.704Z,32.4
2022-11-16T04:28:01.659Z,32.4
2022-11-16T04:29:00.307Z,32.3
2022-11-16T04:30:02.266Z,32.3
2022-11-16T04:31:02.459Z,32.3
2022-11-16T04:32:01.461Z,32.3
2022-11-16T04:33:00.234Z,32.3
2022-11-16T04:34:00.279Z,34.7
2022-11-16T04:35:00.290Z,34.7
2022-11-16T04:36:00.245Z,34.7
2022-11-16T04:37:00.235Z,34.7
2022-11-16T04:38:00.255Z,34.7
2022-11-16T04:39:00.720Z,33.7
2022-11-16T04:40:00.396Z,33.7
2022-11-16T04:41:00.263Z,33.7
2022-11-16T04:42:00.255Z,33.7
2022-11-16T04:43:02.444Z,33.7
2022-11-16T04:44:00.226Z,35.4
2022-11-16T04:45:00.593Z,35.4
2022-11-16T04:46:00.224Z,35.4
2022-11-16T04:47:00.231Z,35.4
2022-11-16T04:48:00.341Z,35.4
2022-11-16T04:49:00.233Z,34.8
2022-11-16T04:50:00.283Z,34.8
2022-11-16T04:51:00.251Z,34.8
2022-11-16T04:52:00.427Z,34.8
2022-11-16T04:53:00.319Z,34.8
2022-11-16T04:54:00.257Z,35.3
2022-11-16T04:55:00.305Z,35.3
2022-11-16T04:56:01.041Z,35.3
2022-11-16T04:57:00.250Z,35.3
2022-11-16T04:58:00.855Z,35.3
2022-11-16T04:59:00.249Z,31.8
2022-11-16T05:00:00.303Z,31.8
2022-11-16T05:01:00.294Z,31.8
2022-11-16T05:02:00.251Z,31.8
2022-11-16T05:03:02.625Z,31.8
2022-11-16T05:04:00.219Z,33.1
2022-11-16T05:05:00.277Z,33.1
2022-11-16T05:06:00.227Z,33.1
2022-11-16T05:07:00.258Z,33.1
2022-11-16T05:08:00.221Z,33.1
2022-11-16T05:09:00.341Z,32.6
2022-11-16T05:10:00.419Z,32.6
2022-11-16T05:11:00.296Z,32.6
2022-11-16T05:12:00.229Z,32.6
2022-11-16T05:13:00.230Z,32.6
2022-11-16T05:14:00.527Z,29.8
2022-11-16T05:15:00.631Z,29.8
2022-11-16T05:16:00.256Z,29.8
2022-11-16T05:17:00.242Z,29.8
2022-11-16T05:18:00.225Z,29.8
2022-11-16T05:19:00.271Z,31.2
2022-11-16T05:20:00.313Z,31.2
2022-11-16T05:21:00.211Z,31.2
2022-11-16T05:22:00.344Z,31.2
2022-11-16T05:23:00.257Z,31.2
2022-11-16T05:24:00.289Z,31.4
2022-11-16T05:25:00.778Z,31.4
2022-11-16T05:26:00.238Z,31.4
2022-11-16T05:27:02.513Z,31.4
2022-11-16T05:28:00.251Z,31.4
2022-11-16T05:29:00.218Z,28.8
2022-11-16T05:30:00.306Z,28.8
2022-11-16T05:31:00.261Z,28.8
2022-11-16T05:32:00.829Z,28.8
2022-11-16T05:33:00.218Z,28.8
2022-11-16T05:34:00.231Z,31.3
2022-11-16T05:35:00.238Z,31.3
2022-11-16T05:36:00.241Z,31.3
2022-11-16T05:37:00.414Z,31.3
2022-11-16T05:38:00.243Z,29.8
2022-11-16T05:39:00.395Z,29.8
2022-11-16T05:40:00.231Z,29.8
2022-11-16T05:41:00.244Z,29.8
2022-11-16T05:42:00.317Z,29.8
2022-11-16T05:43:00.250Z,31.2
2022-11-16T05:44:00.224Z,31.2
2022-11-16T05:45:00.263Z,31.2
2022-11-16T05:46:00.226Z,31.2
2022-11-16T05:47:00.510Z,31.2
2022-11-16T05:48:00.228Z,31.2
2022-11-16T05:49:00.301Z,31.2
2022-11-16T05:50:00.524Z,31.2
2022-11-16T05:51:00.459Z,31.2
2022-11-16T05:52:00.413Z,31.2
2022-11-16T05:53:00.229Z,26.1
2022-11-16T05:54:01.253Z,26.1
2022-11-16T05:55:00.240Z,26.1
2022-11-16T05:56:00.492Z,26.1
2022-11-16T05:57:00.287Z,26.1
2022-11-16T05:58:00.227Z,29.4
2022-11-16T05:59:00.295Z,29.4
2022-11-16T06:00:00.288Z,29.4
2022-11-16T06:01:00.312Z,29.4
2022-11-16T06:02:00.252Z,29.4
2022-11-16T06:03:00.235Z,27.1
2022-11-16T06:04:01.312Z,27.1
2022-11-16T06:05:00.226Z,27.1
2022-11-16T06:06:00.251Z,27.1
2022-11-16T06:07:00.447Z,27.1
2022-11-16T06:08:00.213Z,29.5
2022-11-16T06:09:00.804Z,29.5
2022-11-16T06:10:00.269Z,29.5
2022-11-16T06:11:02.331Z,29.5
2022-11-16T06:12:00.233Z,29.5
2022-11-16T06:13:00.216Z,29.8
2022-11-16T06:14:00.241Z,29.8
2022-11-16T06:15:00.231Z,29.8
2022-11-16T06:16:01.202Z,29.8
2022-11-16T06:17:00.254Z,29.8
2022-11-16T06:18:00.227Z,27.7
2022-11-16T06:19:00.256Z,27.7
2022-11-16T06:20:00.231Z,27.7
2022-11-16T06:21:00.226Z,27.7
2022-11-16T06:22:00.300Z,27.7
2022-11-16T06:23:00.237Z,30.3
2022-11-16T06:24:00.253Z,30.3
2022-11-16T06:25:00.226Z,30.3
2022-11-16T06:26:00.952Z,30.3
2022-11-16T06:27:00.266Z,30.3
2022-11-16T06:28:04.027Z,29.0
2022-11-16T06:29:00.347Z,29.0
2022-11-16T06:30:00.215Z,29.0
2022-11-16T06:31:00.526Z,29.0
2022-11-16T06:32:00.234Z,29.0
2022-11-16T06:33:00.242Z,28.7
2022-11-16T06:34:00.255Z,28.7
2022-11-16T06:35:00.217Z,28.7
2022-11-16T06:36:00.239Z,28.7
2022-11-16T06:37:00.215Z,28.7
2022-11-16T06:38:00.225Z,28.2
2022-11-16T06:39:00.337Z,28.2
2022-11-16T06:40:00.307Z,28.2
2022-11-16T06:41:00.225Z,28.2
2022-11-16T06:42:00.253Z,28.2
2022-11-16T06:43:00.296Z,28.1
2022-11-16T06:44:00.221Z,28.1
2022-11-16T06:45:00.520Z,28.1
2022-11-16T06:46:00.258Z,28.1
2022-11-16T06:47:00.226Z,28.1
2022-11-16T06:48:00.332Z,25.8
2022-11-16T06:49:00.229Z,25.8
2022-11-16T06:50:00.578Z,25.8
2022-11-16T06:51:00.259Z,25.8
2022-11-16T06:52:00.247Z,25.8
2022-11-16T06:53:00.248Z,26.8
2022-11-16T06:54:00.218Z,26.8
2022-11-16T06:55:00.236Z,26.8
2022-11-16T06:56:02.512Z,26.8
2022-11-16T06:57:00.249Z,26.8
2022-11-16T06:58:00.241Z,28.2
2022-11-16T06:59:00.334Z,28.2
2022-11-16T07:00:00.249Z,28.2
2022-11-16T07:01:09.106Z,28.2
2022-11-16T07:02:00.270Z,28.2
2022-11-16T07:03:02.071Z,28.5
2022-11-16T07:04:00.286Z,28.5
2022-11-16T07:05:03.583Z,28.5
2022-11-16T07:06:04.661Z,28.5
2022-11-16T07:07:00.271Z,28.5
2022-11-16T07:08:00.220Z,28.2
2022-11-16T07:09:00.226Z,28.2
2022-11-16T07:10:00.300Z,28.2
2022-11-16T07:11:04.132Z,28.2
2022-11-16T07:12:00.259Z,28.2
2022-11-16T07:13:01.241Z,26.3
2022-11-16T07:14:00.312Z,26.3
2022-11-16T07:15:00.253Z,26.3
2022-11-16T07:16:02.312Z,26.3
2022-11-16T07:17:03.965Z,26.3
2022-11-16T07:18:03.368Z,27.9
2022-11-16T07:19:00.884Z,27.9
2022-11-16T07:20:00.262Z,27.9
2022-11-16T07:21:10.535Z,27.9
2022-11-16T07:22:00.335Z,27.9
2022-11-16T07:23:01.690Z,27.7
2022-11-16T07:24:00.235Z,27.7
2022-11-16T07:25:00.223Z,27.7
2022-11-16T07:26:02.384Z,27.7
2022-11-16T07:27:00.449Z,27.7
2022-11-16T07:28:00.207Z,27.2
2022-11-16T07:29:00.877Z,27.2
2022-11-16T07:30:00.226Z,27.2
2022-11-16T07:31:03.135Z,27.2
2022-11-16T07:32:00.250Z,27.2
2022-11-16T07:33:00.220Z,28.0
2022-11-16T07:34:00.411Z,28.0
2022-11-16T07:35:00.261Z,28.0
2022-11-16T07:36:04.766Z,28.0
2022-11-16T07:37:00.251Z,28.0
2022-11-16T07:38:00.224Z,31.9
2022-11-16T07:39:00.307Z,31.9
2022-11-16T07:40:00.259Z,31.9
2022-11-16T07:41:01.807Z,31.9
2022-11-16T07:42:00.273Z,31.9
2022-11-16T07:43:00.222Z,27.8
2022-11-16T07:44:00.226Z,27.8
2022-11-16T07:45:00.246Z,27.8
2022-11-16T07:46:28.270Z,27.8
2022-11-16T07:47:00.388Z,27.8
2022-11-16T07:48:00.227Z,30.5
2022-11-16T07:49:00.277Z,30.5
2022-11-16T07:50:00.232Z,30.5
2022-11-16T07:51:03.288Z,30.5
2022-11-16T07:52:00.270Z,30.5
2022-11-16T07:53:00.248Z,29.2
2022-11-16T07:54:00.213Z,29.2
2022-11-16T07:55:00.290Z,29.2
2022-11-16T07:56:00.865Z,29.2
2022-11-16T07:57:00.255Z,29.2
2022-11-16T07:58:00.278Z,28.1
2022-11-16T07:59:00.219Z,28.1
2022-11-16T08:00:00.270Z,28.1
2022-11-16T08:01:12.265Z,28.1
2022-11-16T08:02:00.362Z,28.1
2022-11-16T08:03:00.221Z,28.7
2022-11-16T08:04:00.291Z,28.7
2022-11-16T08:05:00.263Z,28.7
2022-11-16T08:06:02.945Z,28.7
2022-11-16T08:07:00.372Z,28.7
2022-11-16T08:08:00.224Z,30.9
2022-11-16T08:09:00.266Z,30.9
2022-11-16T08:10:00.827Z,30.9
2022-11-16T08:11:01.482Z,30.9
2022-11-16T08:12:00.213Z,30.9
2022-11-16T08:13:00.223Z,29.7
2022-11-16T08:14:00.404Z,29.7
2022-11-16T08:15:00.428Z,29.7
2022-11-16T08:16:03.601Z,29.7
2022-11-16T08:17:00.271Z,29.7
2022-11-16T08:18:00.254Z,31.8
2022-11-16T08:19:00.237Z,31.8
2022-11-16T08:20:00.282Z,31.8
2022-11-16T08:21:00.686Z,31.8
2022-11-16T08:22:00.372Z,31.8
2022-11-16T08:23:00.251Z,24.7
2022-11-16T08:24:00.312Z,24.7
2022-11-16T08:25:00.215Z,24.7
2022-11-16T08:26:05.624Z,24.7
2022-11-16T08:27:00.212Z,24.7
2022-11-16T08:28:00.398Z,28.0
2022-11-16T08:29:00.221Z,28.0
2022-11-16T08:30:00.310Z,28.0
2022-11-16T08:31:07.228Z,28.0
2022-11-16T08:32:00.220Z,28.0
2022-11-16T08:33:00.255Z,30.4
2022-11-16T08:34:00.303Z,30.4
2022-11-16T08:35:00.334Z,30.4
2022-11-16T08:36:06.178Z,30.4
2022-11-16T08:37:00.285Z,30.4
2022-11-16T08:38:00.300Z,30.4
2022-11-16T08:39:00.536Z,30.4
2022-11-16T08:40:00.299Z,30.4
2022-11-16T08:41:00.315Z,30.4
2022-11-16T08:42:00.243Z,30.4
2022-11-16T08:43:00.293Z,30.1
2022-11-16T08:44:01.098Z,30.1
2022-11-16T08:45:00.246Z,30.1
2022-11-16T08:46:00.555Z,30.1
2022-11-16T08:47:00.348Z,30.1
2022-11-16T08:48:04.017Z,28.3
2022-11-16T08:49:00.251Z,28.3
2022-11-16T08:50:00.366Z,28.3
2022-11-16T08:52:00.242Z,28.3
2022-11-16T08:53:00.275Z,29.8
2022-11-16T08:54:00.266Z,29.8
2022-11-16T08:55:00.272Z,29.8
2022-11-16T08:56:04.358Z,29.8
2022-11-16T08:57:00.313Z,29.8
2022-11-16T08:58:00.231Z,28.7
2022-11-16T08:59:00.381Z,28.7
2022-11-16T09:00:00.338Z,28.7
2022-11-16T09:01:14.091Z,28.7
2022-11-16T09:02:00.296Z,28.7
2022-11-16T09:03:00.406Z,28.2
2022-11-16T09:04:00.320Z,28.2
2022-11-16T09:05:00.275Z,28.2
2022-11-16T09:06:00.274Z,28.2
2022-11-16T09:07:00.460Z,28.2
2022-11-16T09:08:00.238Z,26.7
2022-11-16T09:09:00.328Z,26.7
2022-11-16T09:10:00.304Z,26.7
2022-11-16T09:11:03.932Z,26.7
2022-11-16T09:12:00.352Z,26.7
2022-11-16T09:13:00.260Z,27.1
2022-11-16T09:14:00.614Z,27.1
2022-11-16T09:15:00.545Z,27.1
2022-11-16T09:16:00.984Z,27.1
2022-11-16T09:17:00.329Z,27.1
2022-11-16T09:18:00.243Z,22.7
2022-11-16T09:19:00.617Z,22.7
2022-11-16T09:20:00.257Z,22.7
2022-11-16T09:21:00.264Z,22.7
2022-11-16T09:22:00.314Z,22.7
2022-11-16T09:23:00.280Z,23.3
2022-11-16T09:24:00.257Z,23.3
2022-11-16T09:25:00.296Z,23.3
2022-11-16T09:26:02.617Z,23.3
2022-11-16T09:27:00.320Z,23.3
2022-11-16T09:28:00.223Z,25.2
2022-11-16T09:29:00.743Z,25.2
2022-11-16T09:30:00.229Z,25.2
2022-11-16T09:31:02.196Z,25.2
2022-11-16T09:32:00.323Z,25.2
2022-11-16T09:33:00.367Z,19.7
2022-11-16T09:34:00.398Z,19.7
2022-11-16T09:35:00.255Z,19.7
2022-11-16T09:36:01.982Z,19.7
2022-11-16T09:37:00.578Z,19.7
2022-11-16T09:38:00.368Z,22.0
2022-11-16T09:39:30.988Z,22.0
2022-11-16T09:40:00.265Z,22.0
2022-11-16T09:41:08.269Z,22.0
2022-11-16T09:42:20.152Z,22.0
2022-11-16T09:43:14.762Z,24.8
2022-11-16T09:44:11.331Z,24.8
2022-11-16T09:45:05.579Z,24.8
2022-11-16T09:46:13.487Z,24.8
2022-11-16T09:47:01.106Z,24.8
2022-11-16T09:48:04.532Z,23.8
2022-11-16T09:49:17.183Z,23.8
2022-11-16T09:50:04.415Z,23.8
2022-11-16T09:51:04.801Z,23.8
2022-11-16T09:52:05.178Z,23.8
2022-11-16T09:53:11.618Z,24.6
2022-11-16T09:54:05.116Z,24.6
2022-11-16T09:55:15.856Z,24.6
2022-11-16T09:56:03.504Z,24.6
2022-11-16T09:57:10.925Z,24.6
2022-11-16T09:58:04.915Z,22.3
2022-11-16T09:59:12.183Z,22.3
2022-11-16T10:00:09.017Z,22.3
2022-11-16T10:01:20.240Z,22.3
2022-11-16T10:02:14.087Z,22.3
2022-11-16T10:03:05.614Z,22.9
2022-11-16T10:04:06.000Z,22.9
2022-11-16T10:05:17.670Z,22.9
2022-11-16T10:06:04.203Z,22.9
2022-11-16T10:07:07.014Z,22.9
2022-11-16T10:08:10.000Z,17.3
2022-11-16T10:09:00.367Z,17.3
2022-11-16T10:10:00.308Z,17.3
2022-11-16T10:11:13.542Z,17.3
2022-11-16T10:12:07.625Z,17.3
2022-11-16T10:13:18.343Z,22.5
2022-11-16T10:14:18.920Z,22.5
2022-11-16T10:15:06.226Z,22.5
2022-11-16T10:16:10.914Z,22.5
2022-11-16T10:17:16.535Z,22.5
2022-11-16T10:18:16.256Z,22.8
2022-11-16T10:19:10.046Z,22.8
2022-11-16T10:20:11.204Z,22.8
2022-11-16T10:21:18.294Z,22.8
2022-11-16T10:22:18.407Z,20.4
2022-11-16T10:23:12.714Z,20.4
2022-11-16T10:24:11.205Z,20.4
2022-11-16T10:25:10.745Z,20.4
2022-11-16T10:26:18.002Z,20.4
2022-11-16T10:27:21.818Z,23.9
2022-11-16T10:28:17.489Z,23.9
2022-11-16T10:29:16.215Z,23.9
2022-11-16T10:30:08.925Z,23.9
2022-11-16T10:31:11.236Z,23.9
2022-11-16T10:32:11.297Z,23.9
2022-11-16T10:33:10.740Z,24.3
2022-11-16T10:34:04.866Z,24.3
2022-11-16T10:35:17.509Z,24.3
2022-11-16T10:36:04.600Z,24.3
2022-11-16T10:37:02.529Z,24.3
2022-11-16T10:38:04.499Z,24.6
2022-11-16T10:39:00.385Z,24.6
2022-11-16T10:40:10.075Z,24.6
2022-11-16T10:41:11.994Z,24.6
2022-11-16T10:42:07.682Z,24.6
2022-11-16T10:43:19.554Z,24.3
2022-11-16T10:44:01.273Z,24.3
2022-11-16T10:45:10.240Z,24.3
2022-11-16T10:46:11.208Z,24.3
2022-11-16T10:47:03.865Z,24.3
2022-11-16T10:48:10.168Z,21.1
2022-11-16T10:49:01.306Z,21.1
2022-11-16T10:50:08.251Z,21.1
2022-11-16T10:51:00.587Z,21.1
2022-11-16T10:52:00.496Z,21.1
2022-11-16T10:53:00.796Z,23.2
2022-11-16T10:54:00.236Z,23.2
2022-11-16T10:55:00.405Z,23.2
2022-11-16T10:56:20.023Z,23.2
2022-11-16T10:57:03.577Z,23.2
2022-11-16T10:58:03.535Z,22.7
2022-11-16T10:59:03.321Z,22.7
2022-11-16T11:00:00.366Z,22.7
2022-11-16T11:01:00.320Z,22.7
2022-11-16T11:02:20.151Z,22.0
2022-11-16T11:03:00.344Z,22.0
2022-11-16T11:04:12.245Z,22.0
2022-11-16T11:05:02.473Z,22.0
2022-11-16T11:06:00.373Z,22.0
2022-11-16T11:07:11.235Z,17.3
2022-11-16T11:08:05.307Z,17.3
2022-11-16T11:09:20.160Z,17.3
2022-11-16T11:10:00.742Z,17.3
2022-11-16T11:11:02.775Z,17.3
2022-11-16T11:12:03.919Z,17.3
2022-11-16T11:13:10.189Z,21.2
2022-11-16T11:14:08.489Z,21.2
2022-11-16T11:15:10.920Z,21.2
2022-11-16T11:16:17.283Z,21.2
2022-11-16T11:17:10.833Z,15.9
2022-11-16T11:18:20.172Z,15.9
2022-11-16T11:19:16.215Z,15.9
2022-11-16T11:20:13.041Z,15.9
2022-11-16T11:21:06.479Z,15.9
2022-11-16T11:22:00.473Z,15.9
2022-11-16T11:23:14.722Z,22.4
2022-11-16T11:24:16.355Z,22.4
2022-11-16T11:25:01.959Z,22.4
2022-11-16T11:26:00.466Z,22.4
2022-11-16T11:27:00.265Z,22.4
2022-11-16T11:28:05.413Z,19.9
2022-11-16T11:29:04.153Z,19.9
2022-11-16T11:30:00.781Z,19.9
2022-11-16T11:31:02.714Z,19.9
2022-11-16T11:32:05.388Z,19.9
2022-11-16T11:33:00.604Z,20.3
2022-11-16T11:34:11.195Z,20.3
2022-11-16T11:35:01.727Z,20.3
2022-11-16T11:36:03.764Z,20.3
2022-11-16T11:37:02.559Z,20.3
2022-11-16T11:38:07.761Z,24.2
2022-11-16T11:39:05.968Z,24.2
2022-11-16T11:40:19.158Z,24.2
2022-11-16T11:41:02.568Z,24.2
2022-11-16T11:42:05.176Z,24.2
2022-11-16T11:43:04.015Z,24.2
2022-11-16T11:44:03.564Z,24.2
2022-11-16T11:45:06.998Z,24.2
2022-11-16T11:46:08.389Z,24.2
2022-11-16T11:48:06.140Z,26.7
2022-11-16T11:49:15.267Z,26.7
2022-11-16T11:50:14.966Z,26.7
2022-11-16T11:51:09.594Z,26.7
2022-11-16T11:52:11.849Z,25.9
2022-11-16T11:53:06.338Z,25.9
2022-11-16T11:54:03.290Z,25.9
2022-11-16T11:55:04.441Z,25.9
2022-11-16T11:56:00.366Z,25.9
2022-11-16T11:57:02.776Z,27.8
2022-11-16T11:58:03.320Z,27.8
2022-11-16T11:59:03.185Z,27.8
2022-11-16T12:00:02.012Z,27.8
2022-11-16T12:01:20.855Z,27.8
2022-11-16T12:02:11.206Z,25.9
2022-11-16T12:03:13.524Z,25.9
2022-11-16T12:04:20.160Z,25.9
2022-11-16T12:05:10.189Z,25.9
2022-11-16T12:06:07.294Z,25.9
2022-11-16T12:07:11.239Z,23.0
2022-11-16T12:08:16.673Z,23.0
2022-11-16T12:09:20.132Z,23.0
2022-11-16T12:10:20.135Z,23.0
2022-11-16T12:11:11.436Z,23.0
2022-11-16T12:12:14.810Z,26.1
2022-11-16T12:13:20.127Z,26.1
2022-11-16T12:14:17.555Z,26.1
2022-11-16T12:15:17.825Z,26.1
2022-11-16T12:16:09.367Z,26.1
2022-11-16T12:17:15.889Z,24.1
2022-11-16T12:18:13.453Z,24.1
2022-11-16T12:19:13.149Z,24.1
2022-11-16T12:20:10.626Z,24.1
2022-11-16T12:21:10.827Z,24.1
2022-11-16T12:22:16.784Z,22.7
2022-11-16T12:23:16.004Z,22.7
2022-11-16T12:24:19.944Z,22.7
2022-11-16T12:25:20.161Z,22.7
2022-11-16T12:26:20.169Z,22.7
2022-11-16T12:27:11.013Z,23.5
2022-11-16T12:28:03.520Z,23.5
2022-11-16T12:29:15.335Z,23.5
2022-11-16T12:30:08.982Z,23.5
2022-11-16T12:31:20.132Z,23.5
2022-11-16T12:32:13.127Z,21.0
2022-11-16T12:33:19.653Z,21.0
2022-11-16T12:34:17.667Z,21.0
2022-11-16T12:35:03.555Z,21.0
2022-11-16T12:36:07.242Z,21.0
2022-11-16T12:37:12.851Z,21.4
2022-11-16T12:38:25.900Z,21.4
2022-11-16T12:39:06.716Z,21.4
2022-11-16T12:40:13.454Z,21.4
2022-11-16T12:41:20.134Z,21.4
2022-11-16T12:42:17.325Z,22.1
2022-11-16T12:43:11.235Z,22.1
2022-11-16T12:44:04.302Z,22.1
2022-11-16T12:45:12.501Z,22.1
2022-11-16T12:46:10.226Z,22.1
2022-11-16T12:47:18.775Z,28.0
2022-11-16T12:48:20.156Z,28.0
2022-11-16T12:49:20.133Z,28.0
2022-11-16T12:50:20.031Z,28.0
2022-11-16T12:51:10.317Z,28.0
2022-11-16T12:52:13.176Z,25.7
2022-11-16T12:53:20.166Z,25.7
2022-11-16T12:54:07.822Z,25.7
2022-11-16T12:55:26.489Z,25.7
2022-11-16T12:56:08.259Z,25.7
2022-11-16T12:57:11.040Z,23.3
2022-11-16T12:58:14.541Z,23.3
2022-11-16T12:59:13.445Z,23.3
2022-11-16T13:00:04.450Z,23.3
2022-11-16T13:01:16.318Z,23.3
2022-11-16T13:02:20.135Z,24.1
2022-11-16T13:03:10.168Z,24.1
2022-11-16T13:04:09.838Z,24.1
2022-11-16T13:05:14.308Z,24.1
2022-11-16T13:06:05.474Z,24.1
2022-11-16T13:07:12.497Z,22.9
2022-11-16T13:08:08.306Z,22.9
2022-11-16T13:09:02.313Z,22.9
2022-11-16T13:10:06.004Z,22.9
2022-11-16T13:11:10.243Z,22.9
2022-11-16T13:12:04.044Z,22.3
2022-11-16T13:13:36.230Z,22.3
2022-11-16T13:14:07.057Z,22.3
2022-11-16T13:15:02.037Z,22.3
2022-11-16T13:16:01.176Z,22.3
2022-11-16T13:17:02.071Z,20.5
2022-11-16T13:18:04.284Z,20.5
2022-11-16T13:19:04.522Z,20.5
2022-11-16T13:20:14.944Z,20.5
2022-11-16T13:21:09.361Z,20.5